createdAt,value
2023-02-15T00:29:52.418Z,0
2023-02-15T00:30:32.869Z,0
2023-02-15T00:31:13.378Z,0
2023-02-15T00:31:53.800Z,0
2023-02-15T00:32:34.254Z,0
2023-02-15T00:33:14.726Z,0
2023-02-15T00:33:55.189Z,0
2023-02-15T00:34:35.646Z,0
2023-02-15T00:35:16.116Z,0
2023-02-15T00:35:56.639Z,0
2023-02-15T00:36:37.109Z,0
2023-02-15T00:43:21.989Z,0
2023-02-15T00:44:05.273Z,0
2023-02-15T00:47:04.393Z,0
2023-02-15T00:47:44.842Z,0
2023-02-15T00:48:25.348Z,0
2023-02-15T00:49:05.811Z,0
2023-02-15T00:49:46.334Z,0
2023-02-15T00:50:26.812Z,0
2023-02-15T00:51:07.300Z,0
2023-02-15T00:51:47.777Z,0
2023-02-15T00:52:28.263Z,0
2023-02-15T00:53:08.802Z,0
2023-02-15T00:59:53.643Z,0
2023-02-15T01:00:34.118Z,0
2023-02-15T01:01:14.686Z,0
2023-02-15T01:01:55.115Z,0
2023-02-15T01:02:35.596Z,0
2023-02-15T01:03:16.083Z,0
2023-02-15T01:03:56.577Z,0
2023-02-15T01:05:17.528Z,0
2023-02-15T01:05:58.006Z,0
2023-02-15T01:06:38.476Z,0
2023-02-15T01:14:03.850Z,0
2023-02-15T01:14:44.362Z,0
2023-02-15T01:17:57.984Z,0
2023-02-15T01:18:38.427Z,0
2023-02-15T01:19:19.048Z,0
2023-02-15T01:19:59.372Z,0
2023-02-15T01:20:39.841Z,0
2023-02-15T01:21:20.328Z,0
2023-02-15T01:22:41.260Z,0
2023-02-15T01:23:21.718Z,0
2023-02-15T01:26:35.351Z,0
2023-02-15T01:27:15.790Z,0
2023-02-15T01:27:56.331Z,0
2023-02-15T01:28:36.717Z,0
2023-02-15T01:29:17.218Z,0
2023-02-15T01:29:57.781Z,0
2023-02-15T01:30:38.207Z,0
2023-02-15T01:31:18.729Z,0
2023-02-15T01:31:59.295Z,0
2023-02-15T01:32:39.655Z,0
2023-02-15T01:33:20.215Z,0
2023-02-15T01:40:05.129Z,0
2023-02-15T01:40:45.612Z,0
2023-02-15T01:41:26.101Z,0
2023-02-15T01:42:06.639Z,0
2023-02-15T01:42:47.085Z,0
2023-02-15T01:43:27.570Z,0
2023-02-15T01:44:08.049Z,0
2023-02-15T01:44:48.541Z,0
2023-02-15T01:45:29.029Z,0
2023-02-15T01:46:09.591Z,0
2023-02-15T01:46:50.114Z,0
2023-02-15T01:53:35.079Z,0
2023-02-15T01:54:15.545Z,0
2023-02-15T01:54:56.089Z,0
2023-02-15T01:55:36.548Z,0
2023-02-15T01:56:17.035Z,0
2023-02-15T01:56:57.528Z,0
2023-02-15T01:58:18.476Z,0
2023-02-15T01:58:59.020Z,0
2023-02-15T01:59:39.518Z,0
2023-02-15T02:00:19.997Z,0
2023-02-15T02:07:45.308Z,0
2023-02-15T02:08:25.793Z,0
2023-02-15T02:09:06.306Z,0
2023-02-15T02:09:46.755Z,0
2023-02-15T02:10:27.233Z,0
2023-02-15T02:11:07.743Z,0
2023-02-15T02:11:48.231Z,0
2023-02-15T02:12:28.716Z,0
2023-02-15T02:13:09.200Z,0
2023-02-15T02:13:49.669Z,0
2023-02-15T02:14:30.163Z,0
2023-02-15T02:21:55.435Z,0
2023-02-15T02:22:35.897Z,0
2023-02-15T02:23:16.386Z,0
2023-02-15T02:23:56.866Z,0
2023-02-15T02:24:37.360Z,0
2023-02-15T02:25:17.844Z,0
2023-02-15T02:25:58.330Z,0
2023-02-15T02:26:38.801Z,0
2023-02-15T02:27:19.293Z,0
2023-02-15T02:27:59.751Z,0
2023-02-15T02:28:40.248Z,0
2023-02-15T02:33:23.617Z,0
2023-02-15T02:34:04.101Z,0
2023-02-15T02:34:44.575Z,0
2023-02-15T02:35:25.081Z,0
2023-02-15T02:40:08.582Z,0
2023-02-15T02:40:49.060Z,0
2023-02-15T02:41:29.512Z,0
2023-02-15T02:42:10.026Z,0
2023-02-15T02:42:50.542Z,0
2023-02-15T02:43:31.047Z,0
2023-02-15T02:44:11.519Z,0
2023-02-15T02:44:51.988Z,0
2023-02-15T02:45:32.488Z,0
2023-02-15T02:46:13.036Z,0
2023-02-15T02:46:53.583Z,0
2023-02-15T02:54:18.917Z,0
2023-02-15T02:55:39.893Z,0
2023-02-15T02:56:20.397Z,0
2023-02-15T02:57:00.869Z,0
2023-02-15T02:57:41.375Z,0
2023-02-15T02:58:21.874Z,0
2023-02-15T03:00:55.044Z,0
2023-02-15T03:01:35.586Z,0
2023-02-15T03:02:16.073Z,0
2023-02-15T03:02:56.642Z,0
2023-02-15T03:03:37.121Z,0
2023-02-15T03:04:17.625Z,0
2023-02-15T03:04:58.100Z,0
2023-02-15T03:05:38.664Z,0
2023-02-15T03:06:19.146Z,0
2023-02-15T03:06:59.646Z,0
2023-02-15T03:13:04.895Z,0
2023-02-15T03:13:45.412Z,0
2023-02-15T03:14:25.901Z,0
2023-02-15T03:15:06.377Z,0
2023-02-15T03:15:46.880Z,0
2023-02-15T03:16:27.437Z,0
2023-02-15T03:17:07.831Z,0
2023-02-15T03:18:28.795Z,0
2023-02-15T03:19:09.312Z,0
2023-02-15T03:19:49.825Z,0
2023-02-15T03:26:34.688Z,0
2023-02-15T03:27:15.184Z,0
2023-02-15T03:27:55.680Z,0
2023-02-15T03:28:36.148Z,0
2023-02-15T03:29:16.669Z,0
2023-02-15T03:29:57.188Z,0
2023-02-15T03:33:31.164Z,0
2023-02-15T03:34:11.660Z,0
2023-02-15T03:34:52.218Z,0
2023-02-15T03:35:32.699Z,0
2023-02-15T03:36:13.187Z,0
2023-02-15T03:36:53.645Z,0
2023-02-15T03:37:34.167Z,0
2023-02-15T03:38:14.595Z,0
2023-02-15T03:38:55.126Z,0
2023-02-15T03:39:35.661Z,0
2023-02-15T03:40:16.120Z,0
2023-02-15T03:47:01.914Z,0
2023-02-15T03:47:42.388Z,0
2023-02-15T03:48:22.857Z,0
2023-02-15T03:49:03.361Z,0
2023-02-15T03:49:43.863Z,0
2023-02-15T03:50:24.345Z,0
2023-02-15T03:51:04.820Z,0
2023-02-15T03:51:45.303Z,0
2023-02-15T03:52:25.814Z,0
2023-02-15T03:53:06.320Z,0
2023-02-15T03:53:46.775Z,0
2023-02-15T04:00:31.656Z,0
2023-02-15T04:01:12.153Z,0
2023-02-15T04:01:52.643Z,0
2023-02-15T04:02:33.128Z,0
2023-02-15T04:03:13.737Z,0
2023-02-15T04:03:57.058Z,0
2023-02-15T04:10:41.853Z,0
2023-02-15T04:11:22.387Z,0
2023-02-15T04:12:02.848Z,0
2023-02-15T04:12:43.367Z,0
2023-02-15T04:13:23.836Z,0
2023-02-15T04:14:04.293Z,0
2023-02-15T04:14:44.813Z,0
2023-02-15T04:15:25.296Z,0
2023-02-15T04:16:06.971Z,0
2023-02-15T04:16:46.371Z,0
2023-02-15T04:17:26.791Z,0
2023-02-15T04:23:37.804Z,0
2023-02-15T04:24:18.319Z,0
2023-02-15T04:24:58.805Z,0
2023-02-15T04:25:39.346Z,0
2023-02-15T04:26:19.821Z,0
2023-02-15T04:27:00.335Z,0
2023-02-15T04:27:40.846Z,0
2023-02-15T04:29:01.886Z,0
2023-02-15T04:29:42.426Z,0
2023-02-15T04:36:27.483Z,0
2023-02-15T04:37:08.566Z,0
2023-02-15T04:37:49.056Z,0
2023-02-15T04:38:29.557Z,0
2023-02-15T04:39:10.035Z,0
2023-02-15T04:39:50.597Z,0
2023-02-15T04:40:31.032Z,0
2023-02-15T04:41:11.527Z,0
2023-02-15T04:41:52.039Z,0
2023-02-15T04:42:32.531Z,0
2023-02-15T04:49:17.548Z,0
2023-02-15T04:49:58.283Z,0
2023-02-15T04:50:38.627Z,0
2023-02-15T04:51:19.081Z,0
2023-02-15T04:51:59.635Z,0
2023-02-15T04:52:41.164Z,0
2023-02-15T04:53:21.613Z,0
2023-02-15T04:54:02.818Z,0
2023-02-15T05:00:47.759Z,0
2023-02-15T05:01:28.454Z,0
2023-02-15T05:02:08.797Z,0
2023-02-15T05:02:49.320Z,0
2023-02-15T05:04:11.363Z,0
2023-02-15T05:04:51.809Z,0
2023-02-15T05:05:32.350Z,0
2023-02-15T05:12:17.524Z,0
2023-02-15T05:12:57.995Z,0
2023-02-15T05:13:38.598Z,0
2023-02-15T05:14:19.021Z,0
2023-02-15T05:14:59.579Z,0
2023-02-15T05:15:40.019Z,0
2023-02-15T05:16:20.544Z,0
2023-02-15T05:17:01.106Z,0
2023-02-15T05:17:41.682Z,0
2023-02-15T05:18:22.181Z,0
2023-02-15T05:19:02.643Z,0
2023-02-15T05:25:07.944Z,0
2023-02-15T05:25:48.405Z,0
2023-02-15T05:26:28.980Z,0
2023-02-15T05:27:09.468Z,0
2023-02-15T05:27:49.963Z,0
2023-02-15T05:28:30.469Z,0
2023-02-15T05:29:11.002Z,0
2023-02-15T05:29:51.608Z,0
2023-02-15T05:30:32.144Z,0
2023-02-15T05:31:12.785Z,0
2023-02-15T05:37:57.794Z,0
2023-02-15T05:38:38.300Z,0
2023-02-15T05:39:18.804Z,0
2023-02-15T05:39:59.331Z,0
2023-02-15T05:40:39.842Z,0
2023-02-15T05:41:20.362Z,0
2023-02-15T05:42:00.903Z,0
2023-02-15T05:42:41.914Z,0
2023-02-15T05:43:22.469Z,0
2023-02-15T05:50:47.990Z,0
2023-02-15T05:51:28.462Z,0
2023-02-15T05:52:09.099Z,0
2023-02-15T05:52:51.312Z,0
2023-02-15T06:32:25.321Z,28
2023-02-15T06:33:05.779Z,28
2023-02-15T06:33:46.376Z,28
2023-02-15T06:34:27.027Z,36
2023-02-15T06:35:07.533Z,36
2023-02-15T06:35:48.143Z,40
2023-02-15T06:36:28.604Z,40
2023-02-15T06:37:09.121Z,44
2023-02-15T06:37:49.778Z,48
2023-02-15T06:43:54.833Z,88
2023-02-15T06:47:08.869Z,112
2023-02-15T06:47:49.573Z,116
2023-02-15T06:48:35.036Z,124
2023-02-15T06:49:16.023Z,128
2023-02-15T06:50:41.078Z,140
2023-02-15T06:51:22.573Z,148
2023-02-15T06:52:03.194Z,156
2023-02-15T06:52:43.678Z,164
2023-02-15T06:56:48.596Z,212
2023-02-15T06:57:29.177Z,224
2023-02-15T06:58:09.717Z,228
2023-02-15T07:01:23.580Z,300
2023-02-15T07:02:04.316Z,308
2023-02-15T07:02:44.801Z,340
2023-02-15T07:03:25.947Z,368
2023-02-15T07:04:06.454Z,384
2023-02-15T07:04:47.166Z,412
2023-02-15T07:05:27.640Z,428
2023-02-15T07:06:08.178Z,464
2023-02-15T07:12:14.007Z,748
2023-02-15T07:12:54.612Z,764
2023-02-15T07:13:35.113Z,784
2023-02-15T07:14:15.719Z,816
2023-02-15T07:14:56.270Z,840
2023-02-15T07:15:37.022Z,868
2023-02-15T07:16:17.529Z,920
2023-02-15T07:16:58.003Z,964
2023-02-15T07:17:38.634Z,996
2023-02-15T07:22:23.280Z,1192
2023-02-15T07:25:38.378Z,1240
2023-02-15T07:26:18.927Z,1284
2023-02-15T07:26:59.411Z,1316
2023-02-15T07:27:42.339Z,1320
2023-02-15T07:28:23.025Z,1336
2023-02-15T07:34:28.145Z,1572
2023-02-15T07:35:08.608Z,1608
2023-02-15T07:35:49.196Z,1652
2023-02-15T07:36:29.897Z,1696
2023-02-15T07:37:10.417Z,1756
2023-02-15T07:37:51.058Z,1784
2023-02-15T07:38:31.734Z,1824
2023-02-15T07:44:43.311Z,1868
2023-02-15T07:45:23.057Z,1892
2023-02-15T07:46:04.041Z,1892
2023-02-15T07:46:44.336Z,1908
2023-02-15T07:47:24.846Z,1944
2023-02-15T07:48:05.355Z,1944
2023-02-15T07:48:45.958Z,1952
2023-02-15T07:49:26.480Z,1928
2023-02-15T07:50:07.081Z,1896
2023-02-15T07:55:32.284Z,1664
2023-02-15T07:56:12.876Z,1644
2023-02-15T07:56:53.520Z,1612
2023-02-15T07:57:33.974Z,1464
2023-02-15T07:58:14.526Z,1364
2023-02-15T07:58:55.059Z,1292
2023-02-15T08:02:24.384Z,1252
2023-02-15T08:03:05.060Z,1244
2023-02-15T08:05:26.285Z,1240
2023-02-15T08:06:06.777Z,1244
2023-02-15T08:06:47.360Z,1244
2023-02-15T08:07:27.931Z,1240
2023-02-15T08:08:08.521Z,1236
2023-02-15T08:08:49.090Z,1232
2023-02-15T08:11:22.720Z,1252
2023-02-15T08:12:03.332Z,1248
2023-02-15T08:12:44.882Z,1240
2023-02-15T08:13:25.528Z,1236
2023-02-15T08:19:18.866Z,1104
2023-02-15T08:19:59.410Z,1140
2023-02-15T08:20:40.982Z,1212
2023-02-15T08:21:23.797Z,1232
2023-02-15T08:26:49.207Z,1232
2023-02-15T08:30:10.476Z,1228
2023-02-15T08:30:50.175Z,1224
2023-02-15T08:31:30.822Z,1216
2023-02-15T08:32:11.936Z,1216
2023-02-15T08:32:52.415Z,1220
2023-02-15T08:33:32.974Z,1224
2023-02-15T08:40:19.447Z,1224
2023-02-15T08:41:00.269Z,1220
2023-02-15T08:41:40.588Z,1220
2023-02-15T08:42:21.128Z,1224
2023-02-15T08:43:01.768Z,1220
2023-02-15T08:43:42.250Z,1216
2023-02-15T08:44:22.737Z,1208
2023-02-15T08:45:03.396Z,1208
2023-02-15T08:45:44.054Z,1208
2023-02-15T08:52:29.372Z,1184
2023-02-15T08:53:09.922Z,1184
2023-02-15T08:53:50.431Z,1184
2023-02-15T08:54:31.034Z,1184
2023-02-15T08:55:11.704Z,1180
2023-02-15T08:55:52.315Z,1180
2023-02-15T08:56:32.816Z,1176
2023-02-15T08:57:13.840Z,1180
2023-02-15T08:57:53.932Z,1180
2023-02-15T08:58:34.540Z,1176
2023-02-15T09:04:39.532Z,1172
2023-02-15T09:05:19.986Z,1172
2023-02-15T09:06:00.526Z,1172
2023-02-15T09:06:41.148Z,1172
2023-02-15T09:07:21.765Z,1176
2023-02-15T09:08:02.218Z,1172
2023-02-15T09:08:42.755Z,1172
2023-02-15T09:09:23.375Z,1172
2023-02-15T09:10:03.892Z,1172
2023-02-15T09:16:09.429Z,1168
2023-02-15T09:16:50.089Z,1172
2023-02-15T09:19:02.725Z,1172
2023-02-15T09:19:44.081Z,1172
2023-02-15T09:20:24.641Z,1172
2023-02-15T09:21:05.105Z,1172
2023-02-15T09:21:46.577Z,1172
2023-02-15T09:22:27.126Z,1172
2023-02-15T09:23:10.062Z,1176
2023-02-15T09:27:13.556Z,1188
2023-02-15T09:27:53.426Z,1188
2023-02-15T09:28:33.915Z,1184
2023-02-15T09:29:14.458Z,1184
2023-02-15T09:29:55.020Z,1184
2023-02-15T09:30:35.696Z,1184
2023-02-15T09:31:16.274Z,1180
2023-02-15T09:34:45.169Z,1132
2023-02-15T09:35:25.886Z,1100
2023-02-15T09:36:07.041Z,1076
2023-02-15T09:38:47.020Z,1044
2023-02-15T09:39:28.281Z,1076
2023-02-15T09:40:08.815Z,1068
2023-02-15T09:40:49.327Z,1072
2023-02-15T09:41:29.873Z,1084
2023-02-15T09:42:10.363Z,1100
2023-02-15T09:42:50.893Z,1112
2023-02-15T09:43:31.391Z,1116
2023-02-15T09:48:31.936Z,1120
2023-02-15T09:49:12.423Z,1124
2023-02-15T09:49:52.955Z,1140
2023-02-15T09:50:35.144Z,1132
2023-02-15T09:51:13.971Z,1100
2023-02-15T09:53:28.265Z,1040
2023-02-15T09:54:08.806Z,1048
2023-02-15T09:54:52.470Z,1036
2023-02-15T09:55:34.549Z,1024
2023-02-15T09:56:15.679Z,1016
2023-02-15T10:00:15.478Z,1052
2023-02-15T10:00:56.110Z,1052
2023-02-15T10:04:25.619Z,1072
2023-02-15T10:05:06.089Z,1072
2023-02-15T10:05:46.615Z,1068
2023-02-15T10:06:27.107Z,1068
2023-02-15T10:07:08.486Z,1072
2023-02-15T10:07:49.033Z,1068
2023-02-15T10:14:35.266Z,1096
2023-02-15T10:15:15.821Z,1068
2023-02-15T10:18:31.295Z,1144
2023-02-15T10:19:12.470Z,1144
2023-02-15T10:19:52.966Z,1144
2023-02-15T10:20:33.493Z,1148
2023-02-15T10:21:14.022Z,1136
2023-02-15T10:21:54.562Z,1124
2023-02-15T10:22:35.132Z,1132
2023-02-15T10:27:10.779Z,1152
2023-02-15T10:27:51.290Z,1116
2023-02-15T10:28:31.763Z,1104
2023-02-15T10:29:12.324Z,1092
2023-02-15T10:29:53.833Z,1092
2023-02-15T10:30:34.482Z,1096
2023-02-15T10:31:14.927Z,1108
2023-02-15T10:31:56.122Z,1128
2023-02-15T10:38:00.664Z,1076
2023-02-15T10:40:45.707Z,1080
2023-02-15T10:41:26.233Z,1044
2023-02-15T10:42:06.753Z,1096
2023-02-15T10:42:47.303Z,1144
2023-02-15T10:43:27.774Z,1144
2023-02-15T10:44:08.324Z,1148
2023-02-15T10:44:48.827Z,1148
2023-02-15T10:45:29.355Z,1152
2023-02-15T10:46:09.889Z,1156
2023-02-15T10:49:25.267Z,1152
2023-02-15T10:50:05.388Z,1156
2023-02-15T10:50:45.990Z,1156
2023-02-15T10:51:26.508Z,1152
2023-02-15T10:52:07.255Z,1140
2023-02-15T10:53:28.724Z,1152
2023-02-15T10:54:09.284Z,1156
2023-02-15T10:54:49.886Z,1172
2023-02-15T11:01:23.589Z,1168
2023-02-15T11:02:05.430Z,1172
2023-02-15T11:02:45.998Z,1168
2023-02-15T11:06:05.862Z,1140
2023-02-15T11:06:46.428Z,1140
2023-02-15T11:07:27.021Z,1132
2023-02-15T11:08:07.448Z,1120
2023-02-15T11:08:48.033Z,1116
2023-02-15T11:09:28.624Z,1108
2023-02-15T11:10:09.127Z,1108
2023-02-15T11:13:24.008Z,1096
2023-02-15T11:14:04.546Z,1096
2023-02-15T11:14:45.037Z,1096
2023-02-15T11:15:25.582Z,1092
2023-02-15T11:16:06.695Z,1088
2023-02-15T11:16:48.206Z,1084
2023-02-15T11:17:28.772Z,1080
2023-02-15T11:22:53.954Z,1060
2023-02-15T11:23:34.527Z,1052
2023-02-15T11:24:15.089Z,1048
2023-02-15T11:24:55.632Z,1052
2023-02-15T11:25:36.188Z,1048
2023-02-15T11:26:16.694Z,1056
2023-02-15T11:26:57.246Z,1052
2023-02-15T11:27:37.828Z,1048
2023-02-15T11:28:58.835Z,1040
2023-02-15T11:35:03.578Z,1032
2023-02-15T11:35:45.413Z,1032
2023-02-15T11:36:25.933Z,1032
2023-02-15T11:37:11.119Z,1028
2023-02-15T11:39:55.196Z,1020
2023-02-15T11:40:36.513Z,1012
2023-02-15T11:41:17.644Z,1012
2023-02-15T11:41:58.237Z,1008
2023-02-15T11:42:38.660Z,1000
2023-02-15T11:49:36.163Z,984
2023-02-15T11:50:16.783Z,980
2023-02-15T11:50:57.283Z,980
2023-02-15T11:51:37.797Z,980
2023-02-15T11:52:58.935Z,976
2023-02-15T11:53:39.443Z,976
2023-02-15T11:54:19.931Z,972
2023-02-15T12:32:28.266Z,912
2023-02-15T12:33:08.887Z,912
2023-02-15T12:33:49.307Z,912
2023-02-15T12:34:29.910Z,912
2023-02-15T12:35:10.329Z,908
2023-02-15T12:35:50.851Z,904
2023-02-15T12:36:31.431Z,904
2023-02-15T12:37:11.933Z,900
2023-02-15T12:37:53.256Z,888
2023-02-15T12:41:18.758Z,912
2023-02-15T12:41:59.280Z,916
2023-02-15T12:42:39.806Z,916
2023-02-15T12:43:20.366Z,912
2023-02-15T12:44:00.890Z,916
2023-02-15T12:44:41.387Z,916
2023-02-15T12:45:21.897Z,916
2023-02-15T12:46:04.785Z,916
2023-02-15T12:49:28.077Z,908
2023-02-15T12:50:12.093Z,900
2023-02-15T12:51:06.274Z,896
2023-02-15T12:51:29.065Z,900
2023-02-15T12:52:09.656Z,904
2023-02-15T12:52:50.236Z,904
2023-02-15T12:53:30.823Z,904
2023-02-15T12:54:11.317Z,900
2023-02-15T12:54:52.527Z,900
2023-02-15T12:55:33.052Z,900
2023-02-15T13:04:04.595Z,912
2023-02-15T13:04:45.069Z,908
2023-02-15T13:05:25.771Z,900
2023-02-15T13:06:06.167Z,900
2023-02-15T13:06:47.745Z,896
2023-02-15T13:07:28.282Z,896
2023-02-15T13:08:08.813Z,896
2023-02-15T13:08:49.411Z,896
2023-02-15T13:09:29.999Z,892
2023-02-15T13:10:10.588Z,884
2023-02-15T13:10:51.053Z,888
2023-02-15T13:17:53.841Z,872
2023-02-15T13:18:34.146Z,868
2023-02-15T13:19:14.716Z,872
2023-02-15T13:19:55.188Z,860
2023-02-15T13:20:35.736Z,860
2023-02-15T13:21:16.243Z,864
2023-02-15T13:21:56.715Z,876
2023-02-15T13:22:37.215Z,876
2023-02-15T13:23:17.750Z,872
2023-02-15T13:30:03.762Z,860
2023-02-15T13:30:44.139Z,856
2023-02-15T13:31:25.121Z,856
2023-02-15T13:32:05.838Z,844
2023-02-15T13:32:46.376Z,848
2023-02-15T13:33:26.892Z,844
2023-02-15T13:34:08.343Z,856
2023-02-15T13:36:54.879Z,828
2023-02-15T13:37:35.396Z,832
2023-02-15T13:38:15.950Z,832
2023-02-15T13:38:57.487Z,832
2023-02-15T13:40:18.486Z,828
2023-02-15T13:46:17.869Z,824
2023-02-15T13:46:58.977Z,832
2023-02-15T13:49:39.781Z,816
2023-02-15T13:50:20.329Z,804
2023-02-15T13:51:00.874Z,792
2023-02-15T13:51:41.415Z,784
2023-02-15T13:52:21.953Z,780
2023-02-15T13:53:02.531Z,772
2023-02-15T13:53:43.019Z,768
2023-02-15T13:57:17.651Z,744
2023-02-15T13:57:58.907Z,740
2023-02-15T13:58:40.994Z,736
2023-02-15T13:59:21.551Z,736
2023-02-15T14:00:02.088Z,736
2023-02-15T14:05:23.529Z,732
2023-02-15T14:06:03.861Z,740
2023-02-15T14:06:44.173Z,736
2023-02-15T14:07:24.910Z,732
2023-02-15T14:08:06.623Z,724
2023-02-15T14:08:47.995Z,720
2023-02-15T14:10:12.319Z,716
2023-02-15T14:10:52.923Z,712
2023-02-15T14:11:33.468Z,708
2023-02-15T14:12:14.093Z,700
2023-02-15T14:12:57.115Z,700
2023-02-15T14:18:23.183Z,644
2023-02-15T14:19:03.828Z,640
2023-02-15T14:19:51.895Z,636
2023-02-15T14:20:32.520Z,636
2023-02-15T14:21:13.904Z,632
2023-02-15T14:21:54.504Z,628
2023-02-15T14:22:35.263Z,624
2023-02-15T14:23:16.828Z,624
2023-02-15T14:23:57.732Z,620
2023-02-15T14:28:02.726Z,604
2023-02-15T14:28:44.497Z,604
2023-02-15T14:29:25.209Z,604
2023-02-15T14:30:05.951Z,612
2023-02-15T14:30:46.558Z,612
2023-02-15T14:31:27.081Z,612
2023-02-15T14:32:07.915Z,612
2023-02-15T14:34:12.316Z,604
2023-02-15T14:34:53.476Z,596
2023-02-15T14:35:40.048Z,592
2023-02-15T14:39:04.600Z,584
2023-02-15T14:39:43.370Z,588
2023-02-15T14:40:23.887Z,584
2023-02-15T14:41:45.165Z,580
2023-02-15T14:42:25.854Z,580
2023-02-15T14:43:06.639Z,572
2023-02-15T14:46:21.313Z,568
2023-02-15T14:47:01.402Z,564
2023-02-15T14:47:42.036Z,564
2023-02-15T14:48:22.534Z,564
2023-02-15T14:49:03.203Z,560
2023-02-15T14:49:43.759Z,564
2023-02-15T14:50:24.305Z,560
2023-02-15T14:51:05.113Z,556
2023-02-15T14:51:45.392Z,552
2023-02-15T14:56:47.232Z,560
2023-02-15T14:57:27.862Z,564
2023-02-15T14:58:08.367Z,564
2023-02-15T14:58:48.905Z,568
2023-02-15T15:01:31.451Z,580
2023-02-15T15:02:11.898Z,580
2023-02-15T15:02:52.354Z,580
2023-02-15T15:03:32.873Z,580
2023-02-15T15:04:13.349Z,576
2023-02-15T15:04:54.474Z,576
2023-02-15T15:05:34.326Z,572
2023-02-15T15:06:14.932Z,572
2023-02-15T15:06:55.415Z,568
2023-02-15T15:07:36.594Z,568
2023-02-15T15:13:41.369Z,544
2023-02-15T15:14:21.937Z,540
2023-02-15T15:15:02.426Z,536
2023-02-15T15:15:43.074Z,536
2023-02-15T15:16:23.588Z,532
2023-02-15T15:17:04.092Z,532
2023-02-15T15:17:44.636Z,532
2023-02-15T15:18:25.210Z,536
2023-02-15T15:19:05.745Z,540
2023-02-15T15:19:53.448Z,548
2023-02-15T15:27:04.918Z,508
2023-02-15T15:27:45.396Z,500
2023-02-15T15:28:25.928Z,496
2023-02-15T15:29:06.454Z,488
2023-02-15T15:29:47.057Z,476
2023-02-15T15:30:27.812Z,472
2023-02-15T15:34:02.734Z,452
2023-02-15T15:34:43.745Z,448
2023-02-15T15:35:24.245Z,444
2023-02-15T15:36:04.944Z,440
2023-02-15T15:36:45.453Z,436
2023-02-15T15:37:26.073Z,432
2023-02-15T15:38:06.536Z,432
2023-02-15T15:44:51.854Z,388
2023-02-15T15:45:32.410Z,384
2023-02-15T15:46:13.042Z,380
2023-02-15T15:46:53.431Z,376
2023-02-15T15:47:33.957Z,372
2023-02-15T15:48:14.459Z,364
2023-02-15T15:48:54.945Z,360
2023-02-15T15:49:35.545Z,352
2023-02-15T15:50:16.043Z,352
2023-02-15T15:50:56.583Z,344
2023-02-15T15:51:37.022Z,340
2023-02-15T15:56:22.037Z,304
2023-02-15T15:57:02.546Z,300
2023-02-15T15:57:43.109Z,296
2023-02-15T15:58:23.680Z,288
2023-02-15T15:59:04.116Z,284
2023-02-15T15:59:44.647Z,280
2023-02-15T16:00:25.181Z,272
2023-02-15T16:01:05.640Z,268
2023-02-15T16:01:46.203Z,264
2023-02-15T16:03:07.193Z,248
2023-02-15T16:09:52.599Z,204
2023-02-15T16:10:33.144Z,200
2023-02-15T16:11:13.646Z,196
2023-02-15T16:11:54.206Z,192
2023-02-15T16:13:15.805Z,180
2023-02-15T16:13:56.342Z,180
2023-02-15T16:14:36.820Z,168
2023-02-15T16:21:22.151Z,128
2023-02-15T16:22:02.662Z,124
2023-02-15T16:22:43.243Z,120
2023-02-15T16:23:23.831Z,116
2023-02-15T16:24:04.310Z,112
2023-02-15T16:24:44.819Z,108
2023-02-15T16:25:27.219Z,104
2023-02-15T16:33:10.111Z,68
2023-02-15T16:33:51.293Z,64
2023-02-15T16:34:32.308Z,60
2023-02-15T16:35:13.376Z,60
2023-02-15T16:35:54.414Z,52
2023-02-15T16:39:19.680Z,44
2023-02-15T16:40:00.550Z,40
2023-02-15T16:40:41.474Z,36
2023-02-15T16:41:22.630Z,36
2023-02-15T16:42:03.631Z,36
2023-02-15T16:42:44.779Z,32
2023-02-15T16:45:30.131Z,28
2023-02-15T16:46:11.201Z,24
2023-02-15T16:46:52.338Z,24
2023-02-15T16:47:33.155Z,20
2023-02-15T16:48:14.196Z,16
2023-02-15T16:52:20.283Z,12
2023-02-15T16:53:01.266Z,12
2023-02-15T16:53:42.268Z,12
2023-02-15T16:54:23.423Z,8
2023-02-15T16:55:04.401Z,8
2023-02-15T16:58:29.667Z,8
2023-02-15T16:59:10.781Z,4
2023-02-15T16:59:51.751Z,4
2023-02-15T17:00:32.809Z,4
2023-02-15T17:01:54.741Z,4
2023-02-15T17:04:39.981Z,0
2023-02-15T17:05:20.901Z,4
2023-02-15T17:06:01.849Z,0
2023-02-15T17:06:42.871Z,0
2023-02-15T17:07:23.995Z,4
2023-02-15T17:08:05.129Z,4
2023-02-15T17:13:48.147Z,0
2023-02-15T17:14:28.640Z,0
2023-02-15T17:15:11.480Z,0
2023-02-15T17:15:49.862Z,0
2023-02-15T17:16:30.277Z,0
2023-02-15T17:17:10.792Z,0
2023-02-15T17:17:51.317Z,0
2023-02-15T17:18:31.905Z,0
2023-02-15T17:19:12.371Z,0
2023-02-15T17:19:52.978Z,0
2023-02-15T17:25:19.005Z,0
2023-02-15T17:25:58.840Z,0
2023-02-15T17:26:39.343Z,0
2023-02-15T17:27:19.872Z,0
2023-02-15T17:28:00.402Z,0
2023-02-15T17:28:41.320Z,0
2023-02-15T17:29:21.775Z,0
2023-02-15T17:36:07.768Z,0
2023-02-15T17:36:48.947Z,0
2023-02-15T17:38:10.663Z,0
2023-02-15T17:38:51.453Z,0
2023-02-15T17:39:31.971Z,0
2023-02-15T17:40:12.603Z,0
2023-02-15T17:40:53.049Z,0
2023-02-15T17:46:57.953Z,0
2023-02-15T17:47:38.443Z,0
2023-02-15T17:48:18.924Z,0
2023-02-15T17:48:59.492Z,0
2023-02-15T17:49:40.018Z,0
2023-02-15T17:50:20.505Z,0
2023-02-15T17:51:01.379Z,0
2023-02-15T17:51:42.427Z,0
2023-02-15T17:52:22.949Z,0
2023-02-15T18:34:10.710Z,0
2023-02-15T18:34:51.824Z,0
2023-02-15T18:35:32.905Z,0
2023-02-15T18:36:13.873Z,0
2023-02-15T18:36:54.821Z,0
2023-02-15T18:37:35.837Z,0
2023-02-15T18:41:01.281Z,0
2023-02-15T18:41:41.953Z,0
2023-02-15T18:42:22.931Z,0
2023-02-15T18:43:04.065Z,0
2023-02-15T18:43:45.225Z,0
2023-02-15T18:47:10.534Z,0
2023-02-15T18:47:51.563Z,0
2023-02-15T18:48:32.651Z,0
2023-02-15T18:49:13.755Z,0
2023-02-15T18:49:55.533Z,0
2023-02-15T18:53:20.738Z,0
2023-02-15T18:54:01.714Z,0
2023-02-15T18:54:42.727Z,0
2023-02-15T18:55:23.804Z,0
2023-02-15T18:56:04.800Z,0
2023-02-15T18:56:45.829Z,0
2023-02-15T19:00:11.104Z,0
2023-02-15T19:01:34.062Z,0
2023-02-15T19:02:15.107Z,0
2023-02-15T19:05:40.454Z,0
2023-02-15T19:06:21.457Z,0
2023-02-15T19:07:02.434Z,0
2023-02-15T19:07:43.665Z,0
2023-02-15T19:08:24.706Z,0
2023-02-15T19:09:05.650Z,0
2023-02-15T19:12:30.766Z,0
2023-02-15T19:13:11.718Z,0
2023-02-15T19:13:52.723Z,0
2023-02-15T19:14:33.862Z,0
2023-02-15T19:15:14.807Z,0
2023-02-15T19:15:55.886Z,0
2023-02-15T19:19:21.148Z,0
2023-02-15T19:20:02.172Z,0
2023-02-15T19:20:43.252Z,0
2023-02-15T19:21:24.374Z,0
2023-02-15T19:22:05.353Z,0
2023-02-15T19:25:30.641Z,0
2023-02-15T19:26:11.662Z,0
2023-02-15T19:26:52.719Z,0
2023-02-15T19:27:33.778Z,0
2023-02-15T19:28:14.885Z,0
2023-02-15T19:31:41.048Z,0
2023-02-15T19:32:22.179Z,0
2023-02-15T19:33:03.799Z,0
2023-02-15T19:33:44.874Z,0
2023-02-15T19:34:25.834Z,0
2023-02-15T19:37:51.841Z,0
2023-02-15T19:38:31.917Z,0
2023-02-15T19:39:13.007Z,0
2023-02-15T19:39:54.482Z,0
2023-02-15T19:40:35.302Z,0
2023-02-15T19:44:01.085Z,0
2023-02-15T19:44:42.071Z,0
2023-02-15T19:45:23.106Z,0
2023-02-15T19:46:04.510Z,0
2023-02-15T19:46:45.205Z,0
2023-02-15T19:50:10.300Z,0
2023-02-15T19:50:51.348Z,0
2023-02-15T19:52:13.467Z,0
2023-02-15T19:52:54.486Z,0
2023-02-15T19:53:35.560Z,0
2023-02-15T19:57:56.478Z,0
2023-02-15T19:58:36.973Z,0
2023-02-15T19:59:18.375Z,0
2023-02-15T20:00:00.550Z,0
2023-02-15T20:00:39.408Z,0
2023-02-15T20:03:53.074Z,0
2023-02-15T20:04:33.657Z,0
2023-02-15T20:05:14.097Z,0
2023-02-15T20:05:54.714Z,0
2023-02-15T20:06:35.247Z,0
2023-02-15T20:07:15.747Z,0
2023-02-15T20:07:56.378Z,0
2023-02-15T20:08:36.895Z,0
2023-02-15T20:09:17.495Z,0
2023-02-15T20:16:03.435Z,0
2023-02-15T20:16:43.732Z,0
2023-02-15T20:17:24.474Z,0
2023-02-15T20:18:05.849Z,0
2023-02-15T20:18:46.562Z,0
2023-02-15T20:19:26.985Z,0
2023-02-15T20:20:07.641Z,0
2023-02-15T20:24:53.086Z,0
2023-02-15T20:25:33.548Z,0
2023-02-15T20:26:14.241Z,0
2023-02-15T20:26:55.010Z,0
2023-02-15T20:27:36.527Z,0
2023-02-15T20:28:16.576Z,0
2023-02-15T20:28:57.193Z,0
2023-02-15T20:29:37.648Z,0
2023-02-15T20:30:18.313Z,0
2023-02-15T20:35:42.826Z,0
2023-02-15T20:36:23.298Z,0
2023-02-15T20:37:03.794Z,0
2023-02-15T20:37:44.257Z,0
2023-02-15T20:38:24.769Z,0
2023-02-15T20:39:05.267Z,0
2023-02-15T20:39:46.783Z,0